Time;durP1;ratioP1;P1;durP2;ratioP2;P2;SDS_P1;SDS_P2;PMS_P1;PMS_P2;Temp;Humidity;BMP_temperature;BMP_pressure;BME280_temperature;BME280_humidity;BME280_pressure;Samples;Min_cycle;Max_cycle;Signal;HPM_P1;HPM_P2
2024/01/15 00:01:08;;;;;;;29.52;3.25;;;2.80;99.90;;;;;;5074668;28;20021;-71
2024/01/15 00:03:33;;;;;;;29.75;3.33;;;2.80;99.90;;;;;;5075501;28;20046;-71
2024/01/15 00:05:59;;;;;;;23.80;3.22;;;2.80;99.90;;;;;;5076045;28;20103;-72
2024/01/15 00:08:24;;;;;;;21.90;2.90;;;2.80;99.90;;;;;;5071256;28;20024;-71
2024/01/15 00:10:50;;;;;;;36.13;3.15;;;2.80;99.90;;;;;;5082810;28;20030;-71
2024/01/15 00:13:15;;;;;;;29.23;3.78;;;2.80;99.90;;;;;;5084608;28;20048;-72
2024/01/15 00:15:41;;;;;;;28.38;3.33;;;2.80;99.90;;;;;;5085216;28;20492;-71
2024/01/15 00:18:07;;;;;;;29.38;2.83;;;2.90;99.90;;;;;;5079209;28;20024;-71
2024/01/15 00:20:32;;;;;;;21.30;3.10;;;2.80;99.90;;;;;;5074876;28;20028;-72
2024/01/15 00:22:58;;;;;;;39.38;3.28;;;2.90;99.90;;;;;;5074675;28;20081;-71
2024/01/15 00:25:23;;;;;;;30.42;3.67;;;2.90;99.90;;;;;;5074719;28;20036;-71
2024/01/15 00:27:49;;;;;;;25.65;3.53;;;2.80;99.90;;;;;;5078137;28;20059;-71
2024/01/15 00:30:15;;;;;;;35.85;3.75;;;2.70;99.90;;;;;;5078394;28;20369;-72
2024/01/15 00:32:40;;;;;;;27.52;3.60;;;2.80;99.90;;;;;;5075240;28;20036;-72
2024/01/15 00:35:06;;;;;;;25.50;3.17;;;2.80;99.90;;;;;;5074456;28;20503;-71
2024/01/15 00:37:32;;;;;;;24.67;3.50;;;2.80;99.90;;;;;;5074740;28;20017;-71
2024/01/15 00:39:57;;;;;;;35.97;4.43;;;2.70;99.90;;;;;;5074702;28;20092;-73
2024/01/15 00:42:23;;;;;;;31.70;3.65;;;2.70;99.90;;;;;;5074574;28;20111;-71
2024/01/15 00:44:48;;;;;;;30.48;3.58;;;2.70;99.90;;;;;;5074230;28;20024;-70
2024/01/15 00:47:14;;;;;;;34.00;4.13;;;2.70;99.90;;;;;;5074263;28;20028;-71
2024/01/15 00:49:40;;;;;;;37.05;4.63;;;2.80;99.90;;;;;;5074899;28;20086;-71
2024/01/15 00:52:05;;;;;;;31.35;3.55;;;2.80;99.90;;;;;;5074357;28;20024;-72
2024/01/15 00:54:31;;;;;;;36.10;4.78;;;2.80;99.90;;;;;;5074341;28;20028;-72
2024/01/15 00:56:56;;;;;;;34.55;4.35;;;2.80;99.90;;;;;;5074765;28;20383;-73
2024/01/15 00:59:22;;;;;;;39.58;4.00;;;2.80;99.90;;;;;;5074448;28;20020;-71
2024/01/15 01:01:48;;;;;;;39.83;4.35;;;2.80;99.90;;;;;;5070835;28;20048;-71
2024/01/15 01:04:13;;;;;;;36.08;4.00;;;2.80;99.90;;;;;;5073353;28;20104;-72
2024/01/15 01:06:39;;;;;;;35.63;3.47;;;2.80;99.90;;;;;;5072928;28;20061;-71
2024/01/15 01:09:05;;;;;;;37.00;4.03;;;2.70;99.90;;;;;;5073125;28;20433;-71
2024/01/15 01:11:30;;;;;;;35.42;3.92;;;2.80;99.90;;;;;;5073088;28;20026;-71
2024/01/15 01:13:57;;;;;;;36.75;3.65;;;2.70;99.90;;;;;;5072845;28;20134;-72
2024/01/15 01:16:22;;;;;;;39.75;3.85;;;2.70;99.90;;;;;;5071977;28;20081;-72
2024/01/15 01:18:48;;;;;;;30.00;3.53;;;2.80;99.90;;;;;;5073051;28;20091;-71
2024/01/15 01:21:13;;;;;;;38.50;3.97;;;2.80;99.90;;;;;;5072326;28;20024;-70
2024/01/15 01:23:39;;;;;;;28.20;3.80;;;2.80;99.90;;;;;;5073032;28;20518;-71
2024/01/15 01:26:05;;;;;;;39.05;3.53;;;2.90;99.90;;;;;;5072585;28;20025;-72
2024/01/15 01:28:30;;;;;;;31.15;3.88;;;2.90;99.90;;;;;;5072695;28;20399;-73
2024/01/15 01:30:56;;;;;;;34.70;3.88;;;2.90;99.90;;;;;;5072994;28;20521;-72
2024/01/15 01:33:21;;;;;;;38.25;4.05;;;2.90;99.90;;;;;;5073007;28;20024;-72
2024/01/15 01:35:47;;;;;;;32.65;4.35;;;2.90;99.90;;;;;;5076659;28;20044;-72
2024/01/15 01:38:13;;;;;;;32.35;3.63;;;2.90;99.90;;;;;;5078201;28;20024;-71
2024/01/15 01:40:38;;;;;;;33.95;4.80;;;3.00;99.90;;;;;;5072162;28;20052;-70
2024/01/15 01:43:09;;;;;;;41.20;4.35;;;3.10;99.90;;;;;;5072588;28;20387;-71
2024/01/15 01:45:35;;;;;;;26.05;3.42;;;3.20;99.90;;;;;;5071749;28;20028;-71
2024/01/15 01:48:01;;;;;;;38.47;3.65;;;3.10;99.90;;;;;;5072364;28;20051;-72
2024/01/15 01:50:31;;;;;;;34.88;3.20;;;3.20;99.90;;;;;;5072171;28;20029;-71
2024/01/15 01:52:57;;;;;;;40.13;3.60;;;3.20;99.90;;;;;;5072246;28;20016;-71
2024/01/15 01:55:25;;;;;;;28.25;3.25;;;3.10;99.90;;;;;;5071138;28;20025;-71
2024/01/15 01:57:51;;;;;;;31.58;4.30;;;3.20;99.90;;;;;;5072209;28;20545;-71
2024/01/15 02:00:17;;;;;;;32.20;4.18;;;3.20;99.90;;;;;;5072469;28;20103;-72
2024/01/15 02:02:43;;;;;;;34.63;3.65;;;3.20;99.90;;;;;;5072815;28;20028;-71
2024/01/15 02:05:09;;;;;;;24.65;3.13;;;3.20;99.90;;;;;;5079517;28;20024;-71
2024/01/15 02:07:35;;;;;;;30.80;3.50;;;3.20;99.90;;;;;;5071043;28;20024;-70
2024/01/15 02:10:01;;;;;;;27.85;3.83;;;3.10;99.90;;;;;;5071666;28;20297;-70
2024/01/15 02:12:26;;;;;;;35.78;3.15;;;3.10;99.90;;;;;;5071786;28;20089;-71
2024/01/15 02:14:52;;;;;;;31.63;3.13;;;3.10;99.90;;;;;;5071202;28;20063;-71
2024/01/15 02:17:18;;;;;;;25.83;3.03;;;3.00;99.90;;;;;;5071641;28;20039;-70
2024/01/15 02:19:43;;;;;;;27.98;3.63;;;3.10;99.90;;;;;;5072892;28;20044;-70
2024/01/15 02:22:09;;;;;;;25.35;3.38;;;3.00;99.90;;;;;;5091856;28;20082;-71
2024/01/15 02:24:34;;;;;;;18.80;2.88;;;3.00;99.90;;;;;;5091588;28;20040;-70
2024/01/15 02:27:00;;;;;;;19.27;3.53;;;3.00;99.90;;;;;;5091961;28;20475;-71
2024/01/15 02:29:26;;;;;;;20.75;2.47;;;3.00;99.90;;;;;;5091269;28;20028;-72
2024/01/15 02:31:51;;;;;;;25.33;3.33;;;3.00;99.90;;;;;;5093218;28;20499;-75
2024/01/15 02:34:17;;;;;;;31.85;3.88;;;3.00;99.90;;;;;;5092194;28;20050;-75
2024/01/15 02:36:42;;;;;;;27.25;2.75;;;3.00;99.90;;;;;;5092444;28;20036;-75
2024/01/15 02:39:08;;;;;;;28.05;4.47;;;3.10;99.90;;;;;;5092222;28;20444;-75
2024/01/15 02:41:34;;;;;;;26.15;3.00;;;3.00;99.90;;;;;;5073204;28;20033;-75
2024/01/15 02:43:59;;;;;;;27.27;3.67;;;3.00;99.90;;;;;;5070917;28;20541;-75
2024/01/15 02:46:25;;;;;;;26.25;3.58;;;3.00;99.90;;;;;;5070742;28;20024;-74
2024/01/15 02:48:50;;;;;;;29.73;4.18;;;3.10;99.90;;;;;;5071353;28;20032;-74
2024/01/15 02:51:16;;;;;;;34.15;4.82;;;3.10;99.90;;;;;;5071044;28;20062;-74
2024/01/15 02:53:42;;;;;;;31.38;4.70;;;3.00;99.90;;;;;;5071091;28;20025;-74
2024/01/15 02:56:07;;;;;;;36.28;4.68;;;3.10;99.90;;;;;;5070382;28;20032;-74
2024/01/15 02:58:33;;;;;;;25.75;4.30;;;3.10;99.90;;;;;;5070643;28;20062;-74
2024/01/15 03:00:59;;;;;;;33.80;3.97;;;3.10;99.90;;;;;;5071376;28;20071;-75
2024/01/15 03:03:24;;;;;;;29.23;4.93;;;3.10;99.90;;;;;;5072223;28;20483;-76
2024/01/15 03:05:50;;;;;;;34.17;4.20;;;3.20;99.90;;;;;;5071292;28;20032;-76
2024/01/15 03:08:15;;;;;;;32.38;4.28;;;3.20;99.90;;;;;;5071135;28;20111;-76
2024/01/15 03:10:41;;;;;;;31.52;3.63;;;3.20;99.90;;;;;;5070555;28;20024;-76
2024/01/15 03:13:07;;;;;;;34.03;4.15;;;3.20;99.90;;;;;;5070666;28;20480;-75
2024/01/15 03:15:32;;;;;;;40.13;4.60;;;3.20;99.90;;;;;;5069837;28;20016;-74
2024/01/15 03:17:58;;;;;;;37.53;4.57;;;3.20;99.90;;;;;;5070658;28;20048;-74
2024/01/15 03:20:24;;;;;;;26.17;3.30;;;3.30;99.90;;;;;;5073402;28;20025;-73
2024/01/15 03:22:50;;;;;;;40.63;3.67;;;3.20;99.90;;;;;;5073921;28;20079;-73
2024/01/15 03:25:15;;;;;;;29.90;3.60;;;3.20;99.90;;;;;;5076969;28;20032;-73
2024/01/15 03:27:41;;;;;;;39.28;4.07;;;3.20;99.90;;;;;;5077255;28;20052;-72
2024/01/15 03:30:07;;;;;;;33.22;4.50;;;3.20;99.90;;;;;;5074580;28;20398;-72
2024/01/15 03:32:33;;;;;;;36.88;4.68;;;3.20;99.90;;;;;;5073405;28;20025;-73
2024/01/15 03:34:58;;;;;;;39.47;4.18;;;3.20;99.90;;;;;;5073220;28;20070;-75
2024/01/15 03:37:25;;;;;;;42.03;4.65;;;3.10;99.90;;;;;;5072371;28;20021;-74
2024/01/15 03:39:50;;;;;;;36.70;4.03;;;3.20;99.90;;;;;;5071397;28;20112;-72
2024/01/15 03:42:16;;;;;;;41.58;5.60;;;3.10;99.90;;;;;;5071377;28;20086;-72
2024/01/15 03:44:42;;;;;;;48.70;5.75;;;3.10;99.90;;;;;;5070891;28;20016;-73
2024/01/15 03:47:07;;;;;;;45.38;5.20;;;3.10;99.90;;;;;;5071495;28;20028;-73
2024/01/15 03:49:33;;;;;;;47.90;4.82;;;3.10;99.90;;;;;;5071523;28;20099;-73
2024/01/15 03:51:58;;;;;;;56.47;4.95;;;3.10;99.90;;;;;;5071719;28;20029;-73
2024/01/15 03:54:24;;;;;;;45.03;4.75;;;3.10;99.90;;;;;;5072197;28;20479;-76
2024/01/15 03:56:49;;;;;;;42.30;5.88;;;3.10;99.90;;;;;;5071630;28;20025;-78
2024/01/15 03:59:15;;;;;;;34.17;3.97;;;3.20;99.90;;;;;;5071879;28;20025;-74
2024/01/15 04:01:41;;;;;;;50.83;5.65;;;3.20;99.90;;;;;;5070822;28;20035;-74
2024/01/15 04:04:06;;;;;;;49.13;5.00;;;3.10;99.90;;;;;;5068743;28;20033;-74
2024/01/15 04:06:32;;;;;;;36.85;4.43;;;3.20;99.90;;;;;;5071232;28;20376;-77
2024/01/15 04:08:58;;;;;;;48.72;5.05;;;3.20;99.90;;;;;;5071624;28;20017;-77
2024/01/15 04:11:24;;;;;;;36.33;4.72;;;3.20;99.90;;;;;;5066945;28;20029;-75
2024/01/15 04:13:50;;;;;;;30.70;3.78;;;3.20;99.90;;;;;;5070795;28;20194;-73
2024/01/15 04:16:15;;;;;;;37.92;5.03;;;3.30;99.90;;;;;;5070696;28;20032;-77
2024/01/15 04:18:41;;;;;;;31.92;4.13;;;3.30;99.90;;;;;;5075625;28;20028;-77
2024/01/15 04:21:07;;;;;;;37.03;4.72;;;3.30;99.90;;;;;;5069899;28;20028;-77
2024/01/15 04:23:33;;;;;;;39.60;4.00;;;3.30;99.90;;;;;;5072653;28;20029;-73
2024/01/15 04:25:59;;;;;;;40.13;4.00;;;3.30;99.90;;;;;;5072603;28;20020;-74
2024/01/15 04:28:24;;;;;;;41.83;4.03;;;3.30;99.90;;;;;;5072123;28;20025;-72
2024/01/15 04:30:50;;;;;;;26.85;3.38;;;3.40;99.90;;;;;;5071957;28;20032;-72
2024/01/15 04:33:16;;;;;;;29.40;3.28;;;3.40;99.90;;;;;;5071802;28;20115;-73
2024/01/15 04:35:42;;;;;;;47.17;4.28;;;3.30;99.90;;;;;;5069863;28;20017;-72
2024/01/15 04:38:07;;;;;;;38.75;4.95;;;3.30;99.90;;;;;;5071182;28;20021;-73
2024/01/15 04:40:33;;;;;;;37.35;4.93;;;3.40;99.90;;;;;;5070989;28;20071;-73
2024/01/15 04:42:58;;;;;;;36.50;4.80;;;3.40;99.90;;;;;;5070845;28;20472;-74
2024/01/15 04:45:28;;;;;;;37.63;4.63;;;3.40;99.90;;;;;;5070843;28;20024;-72
2024/01/15 04:47:54;;;;;;;51.25;5.80;;;3.50;99.90;;;;;;5071394;28;20032;-73
2024/01/15 04:50:20;;;;;;;50.63;5.55;;;3.60;99.90;;;;;;5076535;28;20029;-73
2024/01/15 04:52:45;;;;;;;41.72;5.22;;;3.60;99.90;;;;;;5070594;28;20048;-74
2024/01/15 04:55:11;;;;;;;68.20;6.07;;;3.60;99.90;;;;;;5072154;28;20470;-76
2024/01/15 04:57:37;;;;;;;73.57;6.22;;;3.50;99.90;;;;;;5077173;28;20021;-74
2024/01/15 05:00:03;;;;;;;46.63;5.78;;;3.60;99.90;;;;;;5074787;28;20030;-74
2024/01/15 05:02:28;;;;;;;66.22;7.78;;;3.70;99.90;;;;;;5076733;28;20047;-74
2024/01/15 05:04:54;;;;;;;53.30;5.53;;;3.70;99.90;;;;;;5078935;28;20024;-73
2024/01/15 05:07:19;;;;;;;53.40;7.15;;;3.70;99.90;;;;;;5084018;28;20016;-73
2024/01/15 05:09:45;;;;;;;72.07;7.97;;;3.60;99.90;;;;;;5086892;28;20051;-73
2024/01/15 05:12:11;;;;;;;71.70;6.68;;;3.80;99.90;;;;;;5080540;28;20020;-72
2024/01/15 05:14:37;;;;;;;55.58;8.73;;;3.80;99.90;;;;;;5073968;28;20102;-72
2024/01/15 05:17:02;;;;;;;61.35;7.95;;;3.80;99.90;;;;;;5073906;28;20494;-73
2024/01/15 05:19:28;;;;;;;65.75;6.97;;;3.80;99.90;;;;;;5074214;28;20065;-74
2024/01/15 05:21:53;;;;;;;48.67;6.22;;;3.80;99.90;;;;;;5075674;28;20064;-74
2024/01/15 05:24:19;;;;;;;53.15;5.78;;;3.90;99.90;;;;;;5073972;28;20043;-74
2024/01/15 05:26:45;;;;;;;56.40;7.65;;;3.90;99.90;;;;;;5074816;28;20049;-74
2024/01/15 05:29:10;;;;;;;50.50;6.35;;;3.90;99.90;;;;;;5074806;28;20103;-75
2024/01/15 05:31:36;;;;;;;66.95;6.78;;;3.90;99.90;;;;;;5075223;28;20058;-74
2024/01/15 05:34:02;;;;;;;57.97;6.20;;;3.90;99.90;;;;;;5075311;28;20024;-74
2024/01/15 05:36:27;;;;;;;61.40;6.95;;;3.90;99.90;;;;;;5073611;28;20024;-73
2024/01/15 05:38:53;;;;;;;57.67;6.95;;;4.00;99.90;;;;;;5075170;28;20107;-74
2024/01/15 05:41:18;;;;;;;53.15;7.72;;;3.90;99.90;;;;;;5074685;28;20025;-76
2024/01/15 05:43:44;;;;;;;51.30;7.00;;;3.90;99.90;;;;;;5075792;28;20395;-75
2024/01/15 05:46:10;;;;;;;47.45;6.55;;;3.80;99.90;;;;;;5076563;28;20028;-76
2024/01/15 05:48:35;;;;;;;53.00;6.45;;;3.90;99.90;;;;;;5075356;28;20035;-74
2024/01/15 05:51:01;;;;;;;54.85;7.05;;;3.90;99.90;;;;;;5073283;28;20472;-73
2024/01/15 05:53:27;;;;;;;50.50;5.93;;;3.90;99.90;;;;;;5072923;28;20052;-73
2024/01/15 05:55:54;;;;;;;59.45;6.68;;;3.90;99.90;;;;;;5072556;28;20051;-73
2024/01/15 05:58:19;;;;;;;47.13;6.60;;;3.90;99.90;;;;;;5073078;28;20047;-73
2024/01/15 06:00:46;;;;;;;64.30;7.22;;;3.80;99.90;;;;;;5073129;28;20060;-76
2024/01/15 06:03:11;;;;;;;56.78;5.95;;;3.90;99.90;;;;;;5077396;28;20027;-75
2024/01/15 06:05:37;;;;;;;46.60;5.70;;;3.90;99.90;;;;;;5071825;28;20029;-74
2024/01/15 06:08:03;;;;;;;39.75;5.70;;;3.80;99.90;;;;;;5072710;28;20070;-73
2024/01/15 06:10:28;;;;;;;47.05;5.25;;;3.90;99.90;;;;;;5073314;28;20028;-75
2024/01/15 06:12:54;;;;;;;42.65;4.80;;;3.90;99.90;;;;;;5075302;28;20017;-75
2024/01/15 06:15:19;;;;;;;39.47;4.00;;;3.90;99.90;;;;;;5072227;28;20028;-73
2024/01/15 06:17:45;;;;;;;42.05;4.35;;;4.00;99.90;;;;;;5073797;28;20104;-74
2024/01/15 06:20:11;;;;;;;34.17;4.18;;;3.90;99.90;;;;;;5056483;28;20120;-74
2024/01/15 06:22:39;;;;;;;42.67;7.40;;;4.00;99.90;;;;;;5073557;28;20032;-74
2024/01/15 06:25:06;;;;;;;37.92;5.00;;;4.10;99.90;;;;;;5072559;28;20031;-73
2024/01/15 06:27:32;;;;;;;43.58;5.10;;;4.00;99.90;;;;;;5072605;28;20479;-72
2024/01/15 06:29:57;;;;;;;47.83;5.28;;;4.00;99.90;;;;;;5072129;28;20095;-73
2024/01/15 06:32:23;;;;;;;31.65;4.68;;;4.10;99.90;;;;;;5071815;28;20361;-72
2024/01/15 06:34:48;;;;;;;25.63;3.92;;;4.10;99.90;;;;;;5070685;28;20099;-74
2024/01/15 06:37:14;;;;;;;28.73;2.95;;;4.10;99.90;;;;;;5073198;28;20046;-74
2024/01/15 06:39:40;;;;;;;28.65;3.50;;;4.10;98.90;;;;;;5074192;28;20035;-76
2024/01/15 06:42:05;;;;;;;22.73;3.03;;;4.10;97.50;;;;;;5073542;28;20032;-78
2024/01/15 06:44:31;;;;;;;23.52;2.90;;;4.10;97.40;;;;;;5073389;28;20024;-75
2024/01/15 06:47:00;;;;;;;25.42;2.88;;;4.10;97.40;;;;;;5071872;28;20090;-76
2024/01/15 06:49:26;;;;;;;26.00;2.88;;;4.10;97.50;;;;;;5072164;28;20020;-74
2024/01/15 06:51:52;;;;;;;30.40;3.33;;;4.20;96.40;;;;;;5073130;28;20029;-75
2024/01/15 06:54:17;;;;;;;23.70;3.75;;;4.20;96.40;;;;;;5073003;28;20075;-80
2024/01/15 06:56:43;;;;;;;32.60;3.78;;;4.20;96.80;;;;;;5075514;28;20024;-76
2024/01/15 06:59:09;;;;;;;26.33;3.17;;;4.10;97.30;;;;;;5072759;28;20047;-76
2024/01/15 07:01:34;;;;;;;28.98;3.65;;;4.20;97.80;;;;;;5072447;28;20033;-77
2024/01/15 07:04:00;;;;;;;32.90;3.72;;;4.10;98.80;;;;;;5071561;28;20031;-77
2024/01/15 07:06:25;;;;;;;27.77;4.35;;;4.10;99.30;;;;;;5071179;28;20025;-76
2024/01/15 07:08:51;;;;;;;29.38;3.55;;;4.20;99.00;;;;;;5072741;28;20029;-76
2024/01/15 07:11:16;;;;;;;29.55;4.35;;;4.10;99.90;;;;;;5066629;28;20062;-77
2024/01/15 07:13:42;;;;;;;31.67;3.45;;;4.10;99.90;;;;;;5073420;28;20103;-76
2024/01/15 07:16:08;;;;;;;26.70;3.97;;;4.10;99.90;;;;;;5070901;28;20064;-74
2024/01/15 07:18:33;;;;;;;30.02;4.13;;;4.10;99.90;;;;;;5070537;28;20032;-73
2024/01/15 07:21:01;;;;;;;36.92;4.25;;;4.10;99.90;;;;;;5074171;28;20069;-76
2024/01/15 07:23:26;;;;;;;26.50;3.38;;;4.10;99.90;;;;;;5074405;28;20028;-74
2024/01/15 07:25:53;;;;;;;29.27;3.60;;;4.20;99.90;;;;;;5071121;28;20032;-73
2024/01/15 07:28:18;;;;;;;25.80;2.83;;;4.10;99.90;;;;;;5070159;28;20670;-73
2024/01/15 07:30:44;;;;;;;37.42;4.00;;;4.10;99.90;;;;;;5071389;28;20036;-73
2024/01/15 07:33:10;;;;;;;25.10;4.25;;;4.10;99.90;;;;;;5071363;28;20434;-73
2024/01/15 07:35:36;;;;;;;20.38;3.00;;;4.10;99.70;;;;;;5071104;28;20070;-72
2024/01/15 07:38:02;;;;;;;21.80;3.45;;;4.00;98.30;;;;;;5071325;28;20465;-72
2024/01/15 07:40:28;;;;;;;27.10;4.07;;;4.00;96.50;;;;;;5071362;28;20495;-71
2024/01/15 07:42:53;;;;;;;21.98;3.83;;;4.00;96.10;;;;;;5071297;28;20052;-73
2024/01/15 07:45:19;;;;;;;25.73;3.50;;;4.00;96.40;;;;;;5071249;28;20093;-73
2024/01/15 07:47:44;;;;;;;37.17;3.60;;;4.00;96.30;;;;;;5071383;28;20060;-73
2024/01/15 07:50:10;;;;;;;23.15;3.28;;;4.00;96.70;;;;;;5072024;28;20083;-76
2024/01/15 07:52:36;;;;;;;22.08;4.22;;;3.90;96.20;;;;;;5071990;28;20021;-73
2024/01/15 07:55:03;;;;;;;20.02;3.22;;;4.00;97.10;;;;;;5073878;28;20475;-72
2024/01/15 07:57:29;;;;;;;20.17;2.65;;;4.00;97.60;;;;;;5071358;28;20059;-72
2024/01/15 07:59:55;;;;;;;23.67;3.72;;;4.00;96.80;;;;;;5071973;28;20444;-73
2024/01/15 08:02:21;;;;;;;25.77;4.25;;;4.00;97.70;;;;;;5073768;28;20063;-75
2024/01/15 08:04:47;;;;;;;21.83;2.58;;;4.00;98.40;;;;;;5074713;28;20032;-73
2024/01/15 08:07:13;;;;;;;27.58;3.55;;;4.10;98.40;;;;;;5080110;28;20024;-73
2024/01/15 08:09:38;;;;;;;24.95;3.30;;;4.00;98.70;;;;;;5093716;28;20441;-74
2024/01/15 08:12:06;;;;;;;28.33;3.65;;;4.10;99.50;;;;;;5091185;28;20159;-73
2024/01/15 08:14:31;;;;;;;20.85;2.97;;;3.90;99.90;;;;;;5084459;28;20027;-71
2024/01/15 08:16:57;;;;;;;29.70;3.00;;;3.90;99.90;;;;;;5071774;28;20077;-75
2024/01/15 08:19:22;;;;;;;36.33;4.18;;;3.90;99.90;;;;;;5071099;28;20020;-75
2024/01/15 08:21:48;;;;;;;29.83;3.22;;;3.90;99.90;;;;;;5075712;28;20031;-74
2024/01/15 08:24:15;;;;;;;28.48;3.47;;;3.90;99.90;;;;;;5072245;28;20044;-74
2024/01/15 08:26:40;;;;;;;20.23;3.03;;;4.00;99.90;;;;;;5072947;28;20035;-73
2024/01/15 08:29:06;;;;;;;38.80;3.97;;;4.00;99.90;;;;;;5071330;28;20033;-74
2024/01/15 08:31:31;;;;;;;20.65;2.53;;;4.00;99.90;;;;;;5075605;28;20074;-75
2024/01/15 08:33:57;;;;;;;22.85;3.10;;;4.10;99.90;;;;;;5075956;28;20029;-73
2024/01/15 08:36:24;;;;;;;24.95;3.22;;;4.10;99.90;;;;;;5074715;28;20133;-73
2024/01/15 08:38:49;;;;;;;28.42;3.42;;;4.10;99.90;;;;;;5075097;28;20407;-73
2024/01/15 08:41:15;;;;;;;20.77;2.83;;;4.10;99.90;;;;;;5074360;28;20035;-72
2024/01/15 08:43:41;;;;;;;28.58;2.70;;;4.10;99.90;;;;;;5074731;28;20028;-71
2024/01/15 08:46:07;;;;;;;29.17;2.95;;;4.10;99.90;;;;;;5074422;28;20380;-74
2024/01/15 08:48:32;;;;;;;22.40;3.00;;;4.10;99.90;;;;;;5074866;28;20043;-72
2024/01/15 08:50:58;;;;;;;27.15;3.13;;;4.00;99.90;;;;;;5074173;28;20108;-72
2024/01/15 08:53:23;;;;;;;29.55;3.35;;;4.00;99.90;;;;;;5074397;28;20531;-71
2024/01/15 08:55:49;;;;;;;18.42;2.50;;;4.00;99.90;;;;;;5074444;28;20047;-79
2024/01/15 08:58:15;;;;;;;27.88;3.58;;;4.00;99.90;;;;;;5075051;28;20403;-75
2024/01/15 09:00:41;;;;;;;22.73;3.05;;;4.00;99.90;;;;;;5074262;28;20089;-74
2024/01/15 09:03:08;;;;;;;30.25;5.00;;;4.00;99.90;;;;;;5073970;28;20036;-76
2024/01/15 09:05:34;;;;;;;23.17;3.00;;;3.90;99.90;;;;;;5074617;28;20016;-74
2024/01/15 09:07:59;;;;;;;16.17;3.20;;;3.80;99.90;;;;;;5074607;28;20119;-74
2024/01/15 09:10:25;;;;;;;24.73;3.40;;;3.70;99.90;;;;;;5074478;28;20028;-74
2024/01/15 09:12:51;;;;;;;21.83;3.28;;;3.70;99.90;;;;;;5076786;28;20095;-74
2024/01/15 09:15:16;;;;;;;23.90;3.13;;;3.80;99.90;;;;;;5074618;28;20242;-75
2024/01/15 09:17:42;;;;;;;28.77;3.05;;;3.70;99.90;;;;;;5076202;28;20036;-75
2024/01/15 09:20:09;;;;;;;21.25;3.95;;;3.70;99.90;;;;;;5076137;28;20282;-77
2024/01/15 09:22:35;;;;;;;19.27;3.13;;;3.70;99.90;;;;;;5075754;28;20029;-76
2024/01/15 09:25:01;;;;;;;24.25;2.95;;;3.60;99.90;;;;;;5074315;28;20046;-74
2024/01/15 09:27:26;;;;;;;25.50;3.55;;;3.60;99.90;;;;;;5074254;28;20399;-74
2024/01/15 09:29:52;;;;;;;20.55;3.28;;;3.60;99.90;;;;;;5074053;28;20043;-74
2024/01/15 09:32:18;;;;;;;24.40;2.97;;;3.50;99.90;;;;;;5074087;28;20451;-75
2024/01/15 09:34:46;;;;;;;23.77;3.55;;;3.50;99.90;;;;;;5074146;28;20031;-74
2024/01/15 09:37:12;;;;;;;16.75;2.20;;;3.40;99.90;;;;;;5072636;28;20029;-75
2024/01/15 09:39:38;;;;;;;22.15;3.20;;;3.40;99.90;;;;;;5073896;28;20021;-75
2024/01/15 09:42:04;;;;;;;28.23;4.75;;;3.40;99.90;;;;;;5073563;28;20412;-76
2024/01/15 09:44:30;;;;;;;23.77;5.38;;;3.30;99.90;;;;;;5073756;28;20025;-75
2024/01/15 09:46:57;;;;;;;26.88;4.28;;;3.30;99.90;;;;;;5072544;28;20479;-74
2024/01/15 09:49:23;;;;;;;17.27;2.70;;;3.30;99.90;;;;;;5074374;28;20107;-75
2024/01/15 09:51:48;;;;;;;24.48;3.72;;;3.30;99.90;;;;;;5073803;28;20036;-72
2024/01/15 09:54:16;;;;;;;25.83;3.90;;;3.20;99.90;;;;;;5073522;28;20396;-73
2024/01/15 09:56:46;;;;;;;29.75;4.45;;;3.30;99.90;;;;;;5073858;28;20479;-75
2024/01/15 09:59:16;;;;;;;24.23;3.20;;;3.20;99.90;;;;;;5074357;28;20036;-74
2024/01/15 10:01:44;;;;;;;24.15;3.97;;;3.30;99.90;;;;;;5083307;28;20396;-77
2024/01/15 10:04:13;;;;;;;37.70;5.07;;;3.30;99.90;;;;;;5071986;28;20032;-75
2024/01/15 10:06:42;;;;;;;30.15;4.43;;;3.30;99.90;;;;;;5093125;28;20024;-74
2024/01/15 10:09:08;;;;;;;25.15;4.43;;;3.20;99.90;;;;;;5092762;28;20028;-74
2024/01/15 10:11:33;;;;;;;31.67;4.40;;;3.30;99.90;;;;;;5092930;28;20024;-73
2024/01/15 10:13:59;;;;;;;23.55;3.63;;;3.30;99.90;;;;;;5093516;28;20024;-74
2024/01/15 10:16:26;;;;;;;20.80;3.33;;;3.30;99.90;;;;;;5094740;28;20058;-74
2024/01/15 10:18:51;;;;;;;20.63;3.85;;;3.30;99.90;;;;;;5095025;28;20095;-76
2024/01/15 10:21:17;;;;;;;20.42;3.17;;;3.30;99.90;;;;;;5095945;28;20064;-75
2024/01/15 10:23:44;;;;;;;23.48;4.13;;;3.30;99.90;;;;;;5096360;28;20028;-74
2024/01/15 10:26:11;;;;;;;20.08;2.88;;;3.40;99.90;;;;;;5094461;28;20028;-74
2024/01/15 10:28:37;;;;;;;20.80;2.80;;;3.40;99.90;;;;;;5093487;28;20028;-74
2024/01/15 10:31:03;;;;;;;18.58;2.63;;;3.50;99.90;;;;;;5093939;28;20489;-73
2024/01/15 10:33:28;;;;;;;22.15;2.78;;;3.40;99.90;;;;;;5097349;28;20027;-75
2024/01/15 10:35:55;;;;;;;19.80;3.25;;;3.50;99.90;;;;;;5096225;28;20051;-75
2024/01/15 10:38:22;;;;;;;15.57;3.33;;;3.50;99.90;;;;;;5103849;28;20024;-76
2024/01/15 10:40:55;;;;;;;25.77;3.25;;;3.40;99.90;;;;;;5103419;28;20024;-75
2024/01/15 10:43:21;;;;;;;17.83;3.63;;;3.50;99.90;;;;;;5096743;28;20111;-78
2024/01/15 10:45:48;;;;;;;23.83;5.50;;;3.50;99.90;;;;;;5099583;28;20054;-74
2024/01/15 10:48:15;;;;;;;14.40;3.50;;;3.50;99.90;;;;;;5106658;28;20052;-74
2024/01/15 10:50:41;;;;;;;15.50;2.85;;;3.50;99.90;;;;;;5117001;28;20028;-78
2024/01/15 10:53:09;;;;;;;16.40;3.20;;;3.50;99.90;;;;;;5112848;28;20059;-76
2024/01/15 10:55:37;;;;;;;22.60;4.70;;;3.50;99.90;;;;;;5116800;28;20057;-76
2024/01/15 10:58:07;;;;;;;17.60;3.53;;;3.50;99.90;;;;;;5118004;28;20008;-77
2024/01/15 11:00:34;;;;;;;18.45;3.00;;;3.60;99.90;;;;;;5116897;28;20048;-77
2024/01/15 11:03:02;;;;;;;15.73;3.08;;;3.50;99.90;;;;;;5116513;28;20040;-76
2024/01/15 11:05:28;;;;;;;22.38;4.22;;;3.40;99.90;;;;;;5112844;28;20041;-75
2024/01/15 11:07:59;;;;;;;21.55;4.47;;;3.50;99.90;;;;;;5108012;28;20104;-75
2024/01/15 11:10:42;;;;;;;17.17;2.60;;;3.40;99.90;;;;;;5098606;28;20043;-74
2024/01/15 11:13:20;;;;;;;18.83;3.70;;;3.40;99.90;;;;;;5095411;28;20016;-74
2024/01/15 11:16:07;;;;;;;21.02;6.20;;;3.40;99.90;;;;;;5091311;28;20463;-72
2024/01/15 11:18:55;;;;;;;26.40;3.78;;;3.40;99.90;;;;;;5091106;28;20024;-73
2024/01/15 11:21:23;;;;;;;13.05;2.60;;;3.40;99.90;;;;;;5081909;28;20084;-74
2024/01/15 11:23:59;;;;;;;21.30;3.35;;;3.50;99.90;;;;;;5091001;28;20046;-72
2024/01/15 11:26:33;;;;;;;17.60;3.63;;;3.60;99.90;;;;;;5073412;28;20017;-73
2024/01/15 11:29:01;;;;;;;13.18;2.75;;;3.60;99.90;;;;;;5069375;28;20235;-73
2024/01/15 11:31:50;;;;;;;18.35;2.75;;;3.60;99.90;;;;;;5069125;28;20097;-75
2024/01/15 11:34:16;;;;;;;14.00;3.28;;;3.80;99.90;;;;;;5063292;28;20032;-74
2024/01/15 11:36:53;;;;;;;14.98;3.00;;;3.70;99.90;;;;;;5069081;28;20024;-74
2024/01/15 11:39:32;;;;;;;24.98;4.22;;;3.80;99.90;;;;;;5068730;28;20380;-74
2024/01/15 11:42:00;;;;;;;16.45;3.80;;;3.80;99.90;;;;;;5070455;28;20020;-75
2024/01/15 11:44:26;;;;;;;22.60;3.78;;;3.80;99.90;;;;;;5069496;28;20039;-73
2024/01/15 11:47:00;;;;;;;27.70;4.30;;;3.90;99.90;;;;;;5069687;28;20024;-76
2024/01/15 11:50:02;;;;;;;23.05;4.57;;;3.90;99.90;;;;;;5069424;28;20081;-73
2024/01/15 11:52:35;;;;;;;21.92;3.40;;;3.90;99.90;;;;;;5065676;28;20032;-75
2024/01/15 11:55:25;;;;;;;18.23;3.20;;;3.90;99.90;;;;;;5068539;28;20028;-75
2024/01/15 11:57:54;;;;;;;30.52;3.80;;;4.00;99.90;;;;;;5068521;28;20021;-74
2024/01/15 12:00:21;;;;;;;18.25;3.53;;;4.00;99.90;;;;;;5068757;28;20530;-73
2024/01/15 12:02:48;;;;;;;17.58;3.17;;;4.00;99.90;;;;;;5068714;28;20084;-74
2024/01/15 12:05:16;;;;;;;12.98;2.85;;;4.10;99.90;;;;;;5068938;28;20020;-74
2024/01/15 12:07:47;;;;;;;17.08;2.78;;;4.20;99.90;;;;;;5077720;28;20016;-75
2024/01/15 12:10:15;;;;;;;17.73;2.30;;;4.30;99.90;;;;;;5080793;28;20027;-73
2024/01/15 12:12:59;;;;;;;12.85;2.60;;;4.30;99.90;;;;;;5075292;28;20032;-72
2024/01/15 12:15:28;;;;;;;16.67;3.00;;;4.30;99.90;;;;;;5073671;28;20111;-74
2024/01/15 12:17:57;;;;;;;20.10;2.78;;;4.30;99.90;;;;;;5074531;28;20060;-73
2024/01/15 12:20:24;;;;;;;13.68;2.28;;;4.30;99.90;;;;;;5075452;28;20027;-75
2024/01/15 12:22:49;;;;;;;16.33;2.30;;;4.20;99.90;;;;;;5074844;28;20581;-73
2024/01/15 12:25:15;;;;;;;13.23;2.00;;;4.20;99.90;;;;;;5073849;28;20036;-73
2024/01/15 12:27:41;;;;;;;12.50;2.88;;;4.10;99.90;;;;;;5077064;28;20093;-72
2024/01/15 12:30:07;;;;;;;6.32;1.77;;;4.10;99.90;;;;;;5074133;28;20376;-73
2024/01/15 12:32:34;;;;;;;19.42;2.20;;;4.00;99.90;;;;;;5073452;28;20086;-75
2024/01/15 12:35:00;;;;;;;8.60;1.88;;;4.00;99.90;;;;;;5075658;28;20039;-74
2024/01/15 12:37:27;;;;;;;11.73;2.75;;;4.00;99.90;;;;;;5076797;28;20039;-73
2024/01/15 12:39:54;;;;;;;13.75;2.75;;;4.00;99.90;;;;;;5078670;28;20040;-74
2024/01/15 12:42:21;;;;;;;16.30;3.80;;;4.10;99.90;;;;;;5077154;28;20025;-75
2024/01/15 12:44:47;;;;;;;10.63;2.10;;;4.00;99.90;;;;;;5075473;28;20506;-74